Time;durP1;ratioP1;P1;durP2;ratioP2;P2;SDS_P1;SDS_P2;PMS_P1;PMS_P2;Temp;Humidity;BMP_temperature;BMP_pressure;BME280_temperature;BME280_humidity;BME280_pressure;Samples;Min_cycle;Max_cycle;Signal;HPM_P1;HPM_P2
2021/06/10 00:00:52;;;;;;;9.10;4.63;;;;;;;-145.50;100.00;65435.88;4895505;29;20508;-48
2021/06/10 00:03:19;;;;;;;7.80;4.53;;;;;;;-145.50;100.00;65435.88;4890955;29;20080;-44
2021/06/10 00:05:45;;;;;;;6.75;4.03;;;;;;;-145.50;100.00;65435.88;4893292;29;20482;-43
2021/06/10 00:08:12;;;;;;;6.50;4.10;;;;;;;-145.50;100.00;65435.88;4886310;29;20564;-43
2021/06/10 00:10:40;;;;;;;7.40;4.53;;;;;;;-145.50;100.00;65435.88;4894999;29;20071;-44
2021/06/10 00:13:07;;;;;;;10.48;4.93;;;;;;;-145.50;100.00;65435.88;4894963;29;20241;-44
2021/06/10 00:15:36;;;;;;;6.10;4.18;;;;;;;-145.50;100.00;65435.88;4892324;29;20135;-43
2021/06/10 00:18:04;;;;;;;7.32;4.72;;;;;;;-145.50;100.00;65435.88;4892282;29;20092;-43
2021/06/10 00:20:33;;;;;;;7.55;4.60;;;;;;;-145.50;100.00;65435.88;4885986;29;20097;-43
2021/06/10 00:23:00;;;;;;;9.10;5.03;;;;;;;-145.50;100.00;65435.88;4895305;29;20091;-44
2021/06/10 00:25:28;;;;;;;9.40;5.32;;;;;;;-145.50;100.00;65435.88;4889850;29;20183;-46
2021/06/10 00:27:55;;;;;;;;;;;;;;;-145.50;100.00;65435.88;4895132;29;20119;-45
2021/06/10 00:30:22;;;;;;;5.85;3.78;;;;;;;-145.50;100.00;65435.88;4884618;29;19982;-42
2021/06/10 00:32:50;;;;;;;6.60;4.03;;;;;;;-145.50;100.00;65435.88;4889750;29;20056;-45
2021/06/10 00:35:19;;;;;;;6.65;4.60;;;;;;;-145.50;100.00;65435.88;4897686;29;20072;-43
2021/06/10 00:37:46;;;;;;;7.18;3.95;;;;;;;-145.50;100.00;65435.88;4888499;29;20088;-46
2021/06/10 00:40:14;;;;;;;7.00;4.40;;;;;;;-145.50;100.00;65435.88;4896433;29;20379;-48
2021/06/10 00:42:42;;;;;;;6.20;3.90;;;;;;;-145.50;100.00;65435.88;4887495;29;20184;-43
2021/06/10 00:45:11;;;;;;;8.98;4.82;;;;;;;-145.50;100.00;65435.88;4892810;29;20080;-43
2021/06/10 00:47:37;;;;;;;8.73;4.53;;;;;;;-145.50;100.00;65435.88;4886175;29;20091;-44
2021/06/10 00:50:05;;;;;;;5.75;3.70;;;;;;;-145.50;100.00;65435.88;4898154;29;20083;-44
2021/06/10 00:52:32;;;;;;;7.72;4.18;;;;;;;-145.50;100.00;65435.88;4894993;29;20143;-46
2021/06/10 00:54:59;;;;;;;9.10;4.20;;;;;;;-145.50;100.00;65435.88;4880031;29;20120;-43
2021/06/10 00:57:26;;;;;;;7.72;4.63;;;;;;;-145.50;100.00;65435.88;4894551;29;20662;-43
2021/06/10 00:59:52;;;;;;;7.40;4.13;;;;;;;-145.50;100.00;65435.88;4888163;29;20095;-44
2021/06/10 01:02:19;;;;;;;6.43;4.15;;;;;;;-145.50;100.00;65435.88;4894489;29;20056;-44
2021/06/10 01:04:45;;;;;;;8.68;4.40;;;;;;;-145.50;100.00;65435.88;4892802;29;20171;-43
2021/06/10 01:07:23;;;;;;;5.88;3.97;;;;;;;-145.50;100.00;65435.88;4895918;29;20829;-47
2021/06/10 01:09:59;;;;;;;5.97;4.18;;;;;;;-145.50;100.00;65435.88;4892635;29;20639;-43
2021/06/10 01:12:44;;;;;;;7.50;4.32;;;;;;;-145.50;100.00;65435.88;4885966;29;20143;-44
2021/06/10 01:15:13;;;;;;;8.32;4.60;;;;;;;-145.50;100.00;65435.88;4895784;29;20535;-44
2021/06/10 01:17:46;;;;;;;6.32;3.92;;;;;;;-145.50;100.00;65435.88;4886263;29;20372;-43
2021/06/10 01:20:21;;;;;;;8.85;4.05;;;;;;;-145.50;100.00;65435.88;4893955;29;20370;-45
2021/06/10 01:23:01;;;;;;;7.55;4.03;;;;;;;-145.50;100.00;65435.88;4884289;29;20060;-43
2021/06/10 01:25:34;;;;;;;8.68;3.70;;;;;;;-145.50;100.00;65435.88;4889408;29;20123;-47
2021/06/10 01:28:09;;;;;;;6.15;3.80;;;;;;;-145.50;100.00;65435.88;4885866;29;20444;-44
2021/06/10 01:30:58;;;;;;;5.10;3.78;;;;;;;-145.50;100.00;65435.88;4889428;29;20519;-43
2021/06/10 01:33:31;;;;;;;6.80;3.88;;;;;;;-145.50;100.00;65435.88;4883964;29;20552;-45
2021/06/10 01:36:01;;;;;;;6.38;3.90;;;;;;;-145.50;100.00;65435.88;4893684;29;20160;-43
2021/06/10 01:38:30;;;;;;;5.43;3.67;;;;;;;-145.50;100.00;65435.88;4888671;29;20099;-43
2021/06/10 01:40:58;;;;;;;7.43;4.25;;;;;;;-145.50;100.00;65435.88;4887460;29;21488;-45
2021/06/10 01:43:27;;;;;;;6.93;3.97;;;;;;;-145.50;100.00;65435.88;4894691;29;20075;-46
2021/06/10 01:45:57;;;;;;;9.70;3.95;;;;;;;-145.50;100.00;65435.88;4884842;29;20140;-45
2021/06/10 01:48:24;;;;;;;5.40;3.85;;;;;;;-145.50;100.00;65435.88;4888470;29;20053;-45
2021/06/10 01:50:55;;;;;;;10.13;4.35;;;;;;;-145.50;100.00;65435.88;4885054;29;20484;-44
2021/06/10 01:53:23;;;;;;;5.70;4.05;;;;;;;-145.50;100.00;65435.88;4886288;29;20757;-45
2021/06/10 01:55:53;;;;;;;5.93;3.95;;;;;;;-145.50;100.00;65435.88;4885818;29;20136;-45
2021/06/10 01:58:21;;;;;;;7.60;4.35;;;;;;;-145.50;100.00;65435.88;4891345;29;20136;-44
2021/06/10 02:00:50;;;;;;;5.50;4.10;;;;;;;-145.50;100.00;65435.88;4893332;29;20147;-45
2021/06/10 02:03:20;;;;;;;7.28;4.50;;;;;;;-145.50;100.00;65435.88;4887625;29;20058;-47
2021/06/10 02:05:48;;;;;;;7.47;4.55;;;;;;;-145.50;100.00;65435.88;4887005;29;20088;-45
2021/06/10 02:08:17;;;;;;;9.10;4.80;;;;;;;-145.50;100.00;65435.88;4882395;29;20095;-45
2021/06/10 02:10:47;;;;;;;6.40;5.00;;;;;;;-145.50;100.00;65435.88;4893124;29;20139;-45
2021/06/10 02:13:17;;;;;;;9.18;5.75;;;;;;;-145.50;100.00;65435.88;4886096;29;20818;-45
2021/06/10 02:15:44;;;;;;;13.93;5.75;;;;;;;-145.50;100.00;65435.88;4893943;29;20139;-45
2021/06/10 02:18:13;;;;;;;7.77;5.47;;;;;;;-145.50;100.00;65435.88;4891021;29;20063;-46
2021/06/10 02:20:40;;;;;;;7.20;5.13;;;;;;;-145.50;100.00;65435.88;4881874;29;20503;-45
2021/06/10 02:23:07;;;;;;;10.23;5.50;;;;;;;-145.50;100.00;65435.88;4888857;29;20549;-44
2021/06/10 02:25:35;;;;;;;8.27;5.13;;;;;;;-145.50;100.00;65435.88;4886974;29;20088;-44
2021/06/10 02:28:03;;;;;;;7.72;5.18;;;;;;;-145.50;100.00;65435.88;4892888;29;20060;-46
2021/06/10 02:30:30;;;;;;;7.07;5.25;;;;;;;-145.50;100.00;65435.88;4882165;29;20084;-45
2021/06/10 02:32:56;;;;;;;7.80;5.45;;;;;;;-145.50;100.00;65435.88;4888086;29;20136;-45
2021/06/10 02:35:24;;;;;;;7.18;5.38;;;;;;;-145.50;100.00;65435.88;4883434;29;20128;-45
2021/06/10 02:37:54;;;;;;;8.40;5.13;;;;;;;-145.50;100.00;65435.88;4890852;29;20088;-44
2021/06/10 02:40:26;;;;;;;8.73;5.60;;;;;;;-145.50;100.00;65435.88;4896343;29;20044;-45
2021/06/10 02:42:55;;;;;;;7.20;5.78;;;;;;;-145.50;100.00;65435.88;4884404;29;20131;-45
2021/06/10 02:45:21;;;;;;;11.57;5.82;;;;;;;-145.50;100.00;65435.88;4888689;29;20147;-44
2021/06/10 02:47:49;;;;;;;11.75;5.68;;;;;;;-145.50;100.00;65435.88;4879066;29;20148;-45
2021/06/10 02:50:19;;;;;;;7.97;6.00;;;;;;;-145.50;100.00;65435.88;4888070;29;20143;-44
2021/06/10 02:52:49;;;;;;;8.77;5.97;;;;;;;-145.50;100.00;65435.88;4880674;29;21250;-44
2021/06/10 02:55:18;;;;;;;8.38;6.65;;;;;;;-145.50;100.00;65435.88;4891436;29;20106;-46
2021/06/10 02:57:54;;;;;;;10.15;6.50;;;;;;;-145.50;100.00;65435.88;4894442;29;20841;-46
2021/06/10 03:00:24;;;;;;;9.13;6.47;;;;;;;-145.50;100.00;65435.88;4883652;29;20168;-46
2021/06/10 03:02:51;;;;;;;9.73;6.60;;;;;;;-145.50;100.00;65435.88;4890772;29;20081;-49
2021/06/10 03:05:22;;;;;;;11.13;7.50;;;;;;;-145.50;100.00;65435.88;4883926;29;20103;-49
2021/06/10 03:07:50;;;;;;;9.95;6.47;;;;;;;-145.50;100.00;65435.88;4887213;29;20528;-45
2021/06/10 03:10:21;;;;;;;11.05;5.95;;;;;;;-145.50;100.00;65435.88;4884823;29;20071;-44
2021/06/10 03:12:48;;;;;;;8.02;6.25;;;;;;;-145.50;100.00;65435.88;4886952;29;20533;-46
2021/06/10 03:15:15;;;;;;;9.27;7.00;;;;;;;-145.50;100.00;65435.88;4881085;29;20051;-44
2021/06/10 03:17:42;;;;;;;10.27;6.63;;;;;;;-145.50;100.00;65435.88;4885310;29;20057;-46
2021/06/10 03:20:10;;;;;;;10.57;6.60;;;;;;;-145.50;100.00;65435.88;4889961;29;20052;-46
2021/06/10 03:22:37;;;;;;;10.65;7.18;;;;;;;-145.50;100.00;65435.88;4886412;29;20091;-44
2021/06/10 03:25:09;;;;;;;10.85;7.47;;;;;;;-145.50;100.00;65435.88;4888481;29;20136;-44
2021/06/10 03:27:36;;;;;;;12.52;7.18;;;;;;;-145.50;100.00;65435.88;4885627;29;20152;-45
2021/06/10 03:30:07;;;;;;;12.18;8.60;;;;;;;-145.50;100.00;65435.88;4885206;29;20492;-44
2021/06/10 03:32:34;;;;;;;11.18;7.75;;;;;;;-145.50;100.00;65435.88;4883285;29;20489;-43
2021/06/10 03:35:02;;;;;;;11.15;8.05;;;;;;;-145.50;100.00;65435.88;4891505;29;20065;-44
2021/06/10 03:37:29;;;;;;;10.53;7.90;;;;;;;-145.50;100.00;65435.88;4891827;29;20143;-45
2021/06/10 03:39:56;;;;;;;11.40;7.65;;;;;;;-145.50;100.00;65435.88;4886052;29;20092;-44
2021/06/10 03:42:23;;;;;;;10.63;7.50;;;;;;;-145.50;100.00;65435.88;4884603;29;20588;-45
2021/06/10 03:44:50;;;;;;;12.10;8.15;;;;;;;-145.50;100.00;65435.88;4879184;29;20464;-44
2021/06/10 03:47:17;;;;;;;11.43;7.63;;;;;;;-145.50;100.00;65435.88;4891241;29;20160;-46
2021/06/10 03:49:44;;;;;;;14.25;8.23;;;;;;;-145.50;100.00;65435.88;4884960;29;20554;-45
2021/06/10 03:52:10;;;;;;;14.75;7.47;;;;;;;-145.50;100.00;65435.88;4889538;29;20080;-46
2021/06/10 03:54:37;;;;;;;11.18;8.27;;;;;;;-145.50;100.00;65435.88;4886908;29;20075;-44
2021/06/10 03:57:07;;;;;;;19.38;8.02;;;;;;;-145.50;100.00;65435.88;4881737;29;20147;-45
2021/06/10 03:59:33;;;;;;;13.00;7.30;;;;;;;-145.50;100.00;65435.88;4885568;29;20116;-44
2021/06/10 04:02:00;;;;;;;11.02;7.65;;;;;;;-145.50;100.00;65435.88;4884634;29;20045;-45
2021/06/10 04:04:28;;;;;;;11.55;7.53;;;;;;;-145.50;100.00;65435.88;4891511;29;20052;-44
2021/06/10 04:06:56;;;;;;;11.20;8.13;;;;;;;-145.50;100.00;65435.88;4884098;29;20086;-44
2021/06/10 04:09:23;;;;;;;;;;;;;;;-145.50;100.00;65435.88;4888375;29;20314;-45
2021/06/10 04:11:50;;;;;;;12.27;7.20;;;;;;;-145.50;100.00;65435.88;4879021;29;20124;-44
2021/06/10 04:14:17;;;;;;;9.45;7.28;;;;;;;-145.50;100.00;65435.88;4894358;29;20083;-44
2021/06/10 04:16:45;;;;;;;10.07;7.95;;;;;;;-145.50;100.00;65435.88;4890333;29;20511;-44
2021/06/10 04:19:12;;;;;;;;;;;;;;;-145.50;100.00;65435.88;4881413;29;20340;-47
2021/06/10 04:21:39;;;;;;;13.82;7.07;;;;;;;-145.50;100.00;65435.88;4889530;29;20928;-44
2021/06/10 04:24:05;;;;;;;10.98;7.90;;;;;;;-145.50;100.00;65435.88;4883704;29;20139;-44
2021/06/10 04:26:32;;;;;;;9.82;7.80;;;;;;;-145.50;100.00;65435.88;4884573;29;20087;-45
2021/06/10 04:28:58;;;;;;;11.55;7.15;;;;;;;-145.50;100.00;65435.88;4884357;29;20148;-44
2021/06/10 04:31:25;;;;;;;11.30;7.30;;;;;;;-145.50;100.00;65435.88;4890419;29;20794;-44
2021/06/10 04:33:51;;;;;;;10.45;7.80;;;;;;;-145.50;100.00;65435.88;4891310;29;20358;-46
2021/06/10 04:36:18;;;;;;;10.85;7.80;;;;;;;-145.50;100.00;65435.88;4884162;29;20148;-46
2021/06/10 04:38:44;;;;;;;11.18;7.72;;;;;;;-145.50;100.00;65435.88;4886140;29;20548;-48
2021/06/10 04:41:11;;;;;;;10.45;7.97;;;;;;;-145.50;100.00;65435.88;4880797;29;20501;-47
2021/06/10 04:43:37;;;;;;;12.73;8.20;;;;;;;-145.50;100.00;65435.88;4888275;29;20572;-46
2021/06/10 04:46:04;;;;;;;11.98;7.75;;;;;;;-145.50;100.00;65435.88;4885909;29;20140;-46
2021/06/10 04:48:32;;;;;;;11.52;8.18;;;;;;;-145.50;100.00;65435.88;4894158;29;20055;-46
2021/06/10 04:50:59;;;;;;;9.95;7.63;;;;;;;-145.50;100.00;65435.88;4893619;29;20091;-46
2021/06/10 04:53:25;;;;;;;15.57;8.73;;;;;;;-145.50;100.00;65435.88;4884056;29;20084;-46
2021/06/10 04:55:52;;;;;;;13.98;8.95;;;;;;;-145.50;100.00;65435.88;4889942;29;20088;-45
2021/06/10 04:58:19;;;;;;;12.98;8.65;;;;;;;-145.50;100.00;65435.88;4886877;29;20143;-45
2021/06/10 05:00:45;;;;;;;10.20;8.13;;;;;;;-145.50;100.00;65435.88;4890477;29;20084;-44
2021/06/10 05:03:12;;;;;;;9.50;8.00;;;;;;;-145.50;100.00;65435.88;4887213;29;20076;-46
2021/06/10 05:05:41;;;;;;;12.02;8.77;;;;;;;-145.50;100.00;65435.88;4894853;29;20090;-47
2021/06/10 05:08:08;;;;;;;14.48;9.57;;;;;;;-145.50;100.00;65435.88;4884652;29;20061;-44
2021/06/10 05:10:34;;;;;;;16.25;10.55;;;;;;;-145.50;100.00;65435.88;4891521;29;20068;-45
2021/06/10 05:13:01;;;;;;;14.90;10.45;;;;;;;-145.50;100.00;65435.88;4891406;29;20102;-45
2021/06/10 05:15:27;;;;;;;14.05;10.15;;;;;;;-145.50;100.00;65435.88;4886849;29;20095;-47
2021/06/10 05:17:54;;;;;;;17.85;10.88;;;;;;;-145.50;100.00;65435.88;4893769;29;20083;-45
2021/06/10 05:20:21;;;;;;;16.88;11.93;;;;;;;-145.50;100.00;65435.88;4884493;29;20049;-45
2021/06/10 05:22:48;;;;;;;19.02;12.43;;;;;;;-145.50;100.00;65435.88;4889198;29;20199;-45
2021/06/10 05:25:14;;;;;;;19.10;11.85;;;;;;;-145.50;100.00;65435.88;4890568;29;20080;-47
2021/06/10 05:27:41;;;;;;;18.58;13.20;;;;;;;-145.50;100.00;65435.88;4890445;29;20092;-46
2021/06/10 05:30:09;;;;;;;19.40;13.18;;;;;;;-145.50;100.00;65435.88;4894460;29;20243;-44
2021/06/10 05:32:35;;;;;;;19.80;13.95;;;;;;;-145.50;100.00;65435.88;4884512;29;20076;-45
2021/06/10 05:35:02;;;;;;;20.83;13.27;;;;;;;-145.50;100.00;65435.88;4891724;29;20079;-44
2021/06/10 05:37:29;;;;;;;17.30;12.60;;;;;;;-145.50;100.00;65435.88;4882364;29;20063;-44
2021/06/10 05:39:56;;;;;;;16.80;13.52;;;;;;;-145.50;100.00;65435.88;4892831;29;20076;-45
2021/06/10 05:42:22;;;;;;;17.58;13.45;;;;;;;-145.50;100.00;65435.88;4884532;29;20514;-44
2021/06/10 05:44:49;;;;;;;21.50;15.07;;;;;;;-145.50;100.00;65435.88;4893661;29;20145;-44
2021/06/10 05:47:15;;;;;;;20.23;14.52;;;;;;;-145.50;100.00;65435.88;4891258;29;20087;-44
2021/06/10 05:49:42;;;;;;;21.38;14.60;;;;;;;-145.50;100.00;65435.88;4881620;29;20056;-45
2021/06/10 05:52:08;;;;;;;19.77;13.55;;;;;;;-145.50;100.00;65435.88;4890708;29;20068;-44
2021/06/10 05:54:35;;;;;;;18.67;14.38;;;;;;;-145.50;100.00;65435.88;4887549;29;20151;-45
2021/06/10 05:57:01;;;;;;;20.77;14.23;;;;;;;-145.50;100.00;65435.88;4891217;29;20040;-45
2021/06/10 05:59:28;;;;;;;18.70;14.60;;;;;;;-145.50;100.00;65435.88;4888191;29;20188;-47
2021/06/10 06:01:54;;;;;;;22.55;14.90;;;;;;;-145.50;100.00;65435.88;4891811;29;20458;-46
2021/06/10 06:04:21;;;;;;;22.83;16.30;;;;;;;-145.50;100.00;65435.88;4892770;29;20076;-44
2021/06/10 06:06:48;;;;;;;21.58;16.13;;;;;;;-145.50;100.00;65435.88;4885731;29;20116;-45
2021/06/10 06:09:15;;;;;;;21.08;16.35;;;;;;;-145.50;100.00;65435.88;4890476;29;20517;-46
2021/06/10 06:11:41;;;;;;;22.48;14.77;;;;;;;-145.50;100.00;65435.88;4884979;29;20084;-45
2021/06/10 06:14:09;;;;;;;23.38;16.27;;;;;;;-145.50;100.00;65435.88;4887388;29;20048;-45
2021/06/10 06:16:39;;;;;;;21.10;15.90;;;;;;;-145.50;100.00;65435.88;4882493;29;20518;-44
2021/06/10 06:19:08;;;;;;;19.08;14.82;;;;;;;-145.50;100.00;65435.88;4891997;29;20378;-45
2021/06/10 06:21:35;;;;;;;20.88;15.18;;;;;;;-145.50;100.00;65435.88;4890793;29;20478;-46
2021/06/10 06:24:03;;;;;;;26.48;14.98;;;;;;;-145.50;100.00;65435.88;4886340;29;20060;-48
2021/06/10 06:26:30;;;;;;;22.02;15.93;;;;;;;-145.50;100.00;65435.88;4888008;29;20052;-45
2021/06/10 06:29:01;;;;;;;18.98;15.35;;;;;;;-145.50;100.00;65435.88;4882910;29;20562;-45
2021/06/10 06:31:28;;;;;;;21.08;15.68;;;;;;;-145.50;100.00;65435.88;4892118;29;20242;-45
2021/06/10 06:33:56;;;;;;;19.58;14.77;;;;;;;-145.50;100.00;65435.88;4887725;29;20139;-45
2021/06/10 06:36:22;;;;;;;20.20;14.88;;;;;;;-145.50;100.00;65435.88;4890402;29;20131;-45
2021/06/10 06:38:49;;;;;;;20.25;14.55;;;;;;;-145.50;100.00;65435.88;4889826;29;20091;-45
2021/06/10 06:41:16;;;;;;;20.50;15.23;;;;;;;-145.50;100.00;65435.88;4873239;29;20144;-46
2021/06/10 06:43:42;;;;;;;19.27;15.05;;;;;;;-145.50;100.00;65435.88;4880375;29;20107;-47
2021/06/10 06:46:13;;;;;;;20.75;15.40;;;;;;;-145.50;100.00;65435.88;4884732;29;20057;-45
2021/06/10 06:48:40;;;;;;;18.40;14.25;;;;;;;-145.50;100.00;65435.88;4891105;29;20536;-46
2021/06/10 06:51:07;;;;;;;20.27;15.63;;;;;;;-145.50;100.00;65435.88;4880385;29;20105;-45
2021/06/10 06:53:34;;;;;;;21.93;14.93;;;;;;;-145.50;100.00;65435.88;4881198;29;20183;-45
2021/06/10 06:56:18;;;;;;;24.38;14.05;;;;;;;-145.50;100.00;65435.88;4875611;29;20331;-45
2021/06/10 06:58:45;;;;;;;23.10;14.60;;;;;;;-145.50;100.00;65435.88;4888994;29;20084;-45
2021/06/10 07:01:11;;;;;;;20.67;14.73;;;;;;;-145.50;100.00;65435.88;4891241;29;20087;-46
2021/06/10 07:03:38;;;;;;;18.33;13.75;;;;;;;-145.50;100.00;65435.88;4882493;29;20172;-45
2021/06/10 07:06:05;;;;;;;20.90;14.00;;;;;;;-145.50;100.00;65435.88;4890044;29;20084;-45
2021/06/10 07:08:31;;;;;;;16.90;11.55;;;;;;;-145.50;100.00;65435.88;4871276;29;20395;-47
2021/06/10 07:11:01;;;;;;;16.40;10.45;;;;;;;-145.50;100.00;65435.88;4883999;29;20067;-45
2021/06/10 07:13:27;;;;;;;13.10;10.15;;;;;;;-145.50;100.00;65435.88;4882526;29;20140;-45
2021/06/10 07:15:54;;;;;;;12.68;9.52;;;;;;;-145.50;100.00;65435.88;4889446;29;20113;-46
2021/06/10 07:18:21;;;;;;;15.30;10.07;;;;;;;-145.50;100.00;65435.88;4887960;29;20079;-45
2021/06/10 07:20:48;;;;;;;13.02;9.35;;;;;;;-145.50;100.00;65435.88;4884351;29;20139;-45
2021/06/10 07:23:14;;;;;;;12.77;8.73;;;;;;;-145.50;100.00;65435.88;4882315;29;20052;-45
2021/06/10 07:25:41;;;;;;;12.30;8.35;;;;;;;-145.50;100.00;65435.88;4878078;29;20059;-45
2021/06/10 07:28:08;;;;;;;14.35;9.38;;;;;;;-145.50;100.00;65435.88;4888804;29;20077;-45
2021/06/10 07:30:35;;;;;;;17.63;8.07;;;;;;;-145.50;100.00;65435.88;4876897;29;20087;-45
2021/06/10 07:33:04;;;;;;;14.70;7.18;;;;;;;-145.50;100.00;65435.88;4885450;29;20147;-45
2021/06/10 07:35:33;;;;;;;6.88;5.35;;;;;;;-145.50;100.00;65435.88;4891811;29;20952;-46
2021/06/10 07:38:02;;;;;;;5.65;3.53;;;;;;;-145.50;100.00;65435.88;4877947;29;20059;-46
2021/06/10 07:40:30;;;;;;;6.95;3.80;;;;;;;-145.50;100.00;65435.88;4888421;29;20143;-45
2021/06/10 07:42:57;;;;;;;4.20;3.00;;;;;;;-145.50;100.00;65435.88;4879402;29;20116;-44
2021/06/10 07:45:26;;;;;;;6.63;3.20;;;;;;;-145.50;100.00;65435.88;4887105;29;20053;-45
2021/06/10 07:47:53;;;;;;;6.22;3.50;;;;;;;-145.50;100.00;65435.88;4882088;29;20084;-45
2021/06/10 07:50:20;;;;;;;6.47;4.47;;;;;;;-145.50;100.00;65435.88;4885784;29;20060;-46
2021/06/10 07:52:47;;;;;;;9.30;5.47;;;;;;;-145.50;100.00;65435.88;4884862;29;20089;-48
2021/06/10 07:55:14;;;;;;;10.02;4.85;;;;;;;-145.50;100.00;65435.88;4884388;29;20191;-46
2021/06/10 07:57:41;;;;;;;9.15;5.95;;;;;;;-145.50;100.00;65435.88;4887490;29;20643;-47
2021/06/10 08:00:08;;;;;;;10.02;6.80;;;;;;;-145.50;100.00;65435.88;4885040;29;20087;-46
2021/06/10 08:02:41;;;;;;;7.57;5.10;;;;;;;-145.50;100.00;65435.88;4886226;29;20067;-46
2021/06/10 08:05:08;;;;;;;6.97;5.07;;;;;;;-145.50;100.00;65435.88;4874402;29;20124;-45
2021/06/10 08:07:36;;;;;;;8.50;4.78;;;;;;;-145.50;100.00;65435.88;4883470;29;20167;-48
2021/06/10 08:10:03;;;;;;;8.70;5.22;;;;;;;-145.50;100.00;65435.88;4877605;29;20053;-47
2021/06/10 08:12:30;;;;;;;7.07;4.25;;;;;;;-145.50;100.00;65435.88;4882794;29;20057;-47
2021/06/10 08:14:57;;;;;;;6.55;4.15;;;;;;;-145.50;100.00;65435.88;4888418;29;20104;-45
2021/06/10 08:17:24;;;;;;;8.48;4.57;;;;;;;-145.50;100.00;65435.88;4878334;29;20453;-48
2021/06/10 08:19:50;;;;;;;7.47;5.32;;;;;;;-145.50;100.00;65435.88;4881056;29;20139;-47
2021/06/10 08:22:17;;;;;;;8.27;5.50;;;;;;;-145.50;100.00;65435.88;4882782;29;20091;-44
2021/06/10 08:24:44;;;;;;;12.18;6.75;;;;;;;-145.50;100.00;65435.88;4893573;29;20060;-44
2021/06/10 08:27:10;;;;;;;9.93;6.72;;;;;;;-145.50;100.00;65435.88;4889352;29;20076;-44
2021/06/10 08:29:37;;;;;;;10.95;6.43;;;;;;;-145.50;100.00;65435.88;4888834;29;20060;-45
2021/06/10 08:32:04;;;;;;;13.82;8.48;;;;;;;-145.50;100.00;65435.88;4884495;29;20469;-45
2021/06/10 08:34:31;;;;;;;12.90;8.32;;;;;;;-145.50;100.00;65435.88;4878941;29;20063;-44
2021/06/10 08:36:58;;;;;;;11.55;8.52;;;;;;;-145.50;100.00;65435.88;4892925;29;20052;-46
2021/06/10 08:39:25;;;;;;;14.68;7.95;;;;;;;-145.50;100.00;65435.88;4886273;29;20164;-44
2021/06/10 08:41:51;;;;;;;13.75;8.32;;;;;;;-145.50;100.00;65435.88;4891689;29;20079;-45
2021/06/10 08:44:18;;;;;;;13.20;8.70;;;;;;;-145.50;100.00;65435.88;4878946;29;20052;-48
2021/06/10 08:46:47;;;;;;;14.43;9.35;;;;;;;-145.50;100.00;65435.88;4886663;29;20868;-46
2021/06/10 08:49:15;;;;;;;12.88;9.35;;;;;;;-145.50;100.00;65435.88;4887116;29;20056;-45
2021/06/10 08:51:41;;;;;;;13.38;9.32;;;;;;;-145.50;100.00;65435.88;4885098;29;20881;-46
2021/06/10 08:54:08;;;;;;;14.50;9.45;;;;;;;-145.50;100.00;65435.88;4889107;29;20049;-44
2021/06/10 08:56:35;;;;;;;15.23;9.60;;;;;;;-145.50;100.00;65435.88;4885873;29;20135;-46
2021/06/10 08:59:01;;;;;;;13.80;9.20;;;;;;;-145.50;100.00;65435.88;4891624;29;20057;-46
2021/06/10 09:01:30;;;;;;;15.77;9.70;;;;;;;-145.50;100.00;65435.88;4881238;29;20152;-49
2021/06/10 09:03:56;;;;;;;12.70;9.18;;;;;;;-145.50;100.00;65435.88;4889352;29;20136;-45
2021/06/10 09:06:23;;;;;;;10.75;8.75;;;;;;;-145.50;100.00;65435.88;4887211;29;20079;-51
2021/06/10 09:08:56;;;;;;;10.57;9.00;;;;;;;-145.50;100.00;65435.88;4884551;29;20103;-47
2021/06/10 09:11:25;;;;;;;14.68;8.38;;;;;;;-145.50;100.00;65435.88;4892229;29;20080;-45
2021/06/10 09:13:57;;;;;;;12.38;7.45;;;;;;;-145.50;100.00;65435.88;4880835;29;20140;-47
2021/06/10 09:16:33;;;;;;;10.38;8.80;;;;;;;-145.50;100.00;65435.88;4889183;29;20060;-45
2021/06/10 09:19:14;;;;;;;11.57;8.35;;;;;;;-145.50;100.00;65435.88;4883568;29;20064;-44
2021/06/10 09:21:47;;;;;;;9.75;7.82;;;;;;;-145.50;100.00;65435.88;4891922;29;20064;-48
2021/06/10 09:24:39;;;;;;;10.98;7.50;;;;;;;-145.50;100.00;65435.88;4886981;29;20057;-45
2021/06/10 09:27:11;;;;;;;12.05;7.25;;;;;;;-145.50;100.00;65435.88;4891469;29;20148;-45
2021/06/10 09:29:38;;;;;;;11.73;8.13;;;;;;;-145.50;100.00;65435.88;4885538;29;20053;-48
2021/06/10 09:32:15;;;;;;;19.17;7.30;;;;;;;-145.50;100.00;65435.88;4877449;29;20124;-46
2021/06/10 09:34:43;;;;;;;11.15;7.88;;;;;;;-145.50;100.00;65435.88;4884941;29;20061;-47
2021/06/10 09:37:12;;;;;;;11.55;8.43;;;;;;;-145.50;100.00;65435.88;4883951;29;20179;-47
2021/06/10 09:39:51;;;;;;;11.77;7.20;;;;;;;-145.50;100.00;65435.88;4881050;29;20164;-45
2021/06/10 09:42:30;;;;;;;11.68;8.88;;;;;;;-145.50;100.00;65435.88;4876020;29;20876;-47
2021/06/10 09:45:00;;;;;;;11.43;9.35;;;;;;;-145.50;100.00;65435.88;4880998;29;20194;-46
2021/06/10 09:47:28;;;;;;;16.38;9.43;;;;;;;-145.50;100.00;65435.88;4883817;29;20139;-45
2021/06/10 09:49:55;;;;;;;11.65;8.93;;;;;;;-145.50;100.00;65435.88;4886895;29;20076;-47
2021/06/10 09:52:22;;;;;;;12.02;7.72;;;;;;;-145.50;100.00;65435.88;4888788;29;20147;-46
2021/06/10 09:54:52;;;;;;;14.37;8.67;;;;;;;-145.50;100.00;65435.88;4885500;29;20192;-46
2021/06/10 09:57:19;;;;;;;13.27;8.15;;;;;;;-145.50;100.00;65435.88;4886863;29;20208;-46
2021/06/10 09:59:48;;;;;;;12.98;9.95;;;;;;;-145.50;100.00;65435.88;4886164;29;20061;-48
2021/06/10 10:02:20;;;;;;;17.38;10.93;;;;;;;-145.50;100.00;65435.88;4891923;29;20056;-46
2021/06/10 10:05:00;;;;;;;13.30;9.30;;;;;;;-145.50;100.00;65435.88;4884133;29;20092;-46
2021/06/10 10:07:30;;;;;;;11.77;8.93;;;;;;;-145.50;100.00;65435.88;4890477;29;20112;-47
2021/06/10 10:10:03;;;;;;;11.55;8.73;;;;;;;-145.50;100.00;65435.88;4879042;29;20059;-46
2021/06/10 10:12:31;;;;;;;13.02;8.85;;;;;;;-145.50;100.00;65435.88;4887849;29;20060;-46
2021/06/10 10:14:58;;;;;;;;;;;;;;;-145.50;100.00;65435.88;4890449;29;20056;-46
2021/06/10 10:17:27;;;;;;;11.85;8.70;;;;;;;-145.50;100.00;65435.88;4885418;29;19967;-47
2021/06/10 10:19:56;;;;;;;15.70;9.05;;;;;;;-145.50;100.00;65435.88;4889133;29;20135;-48
2021/06/10 10:22:24;;;;;;;12.63;7.72;;;;;;;-145.50;100.00;65435.88;4879172;29;20170;-49
2021/06/10 10:24:53;;;;;;;11.95;9.27;;;;;;;-145.50;100.00;65435.88;4885904;29;20445;-48
2021/06/10 10:27:21;;;;;;;12.98;9.90;;;;;;;-145.50;100.00;65435.88;4885964;29;20048;-47
2021/06/10 10:29:49;;;;;;;12.85;10.15;;;;;;;-145.50;100.00;65435.88;4890183;29;20108;-45
2021/06/10 10:32:24;;;;;;;14.63;9.85;;;;;;;-145.50;100.00;65435.88;4890737;29;20148;-48
2021/06/10 10:35:24;;;;;;;10.88;9.40;;;;;;;-145.50;100.00;65435.88;4883428;29;20072;-46
2021/06/10 10:37:53;;;;;;;15.32;10.10;;;;;;;-145.50;100.00;65435.88;4883487;29;20048;-46
2021/06/10 10:40:20;;;;;;;14.02;10.93;;;;;;;-145.50;100.00;65435.88;4883871;29;20108;-48
2021/06/10 10:42:47;;;;;;;14.93;9.90;;;;;;;-145.50;100.00;65435.88;4887370;29;20135;-51
2021/06/10 10:45:20;;;;;;;12.77;8.73;;;;;;;-145.50;100.00;65435.88;4883415;29;20092;-51
2021/06/10 10:48:03;;;;;;;11.10;8.23;;;;;;;-145.50;100.00;65435.88;4888383;29;20084;-45
2021/06/10 10:50:35;;;;;;;11.73;8.02;;;;;;;-145.50;100.00;65435.88;4879712;29;20136;-49
2021/06/10 10:53:03;;;;;;;12.07;9.80;;;;;;;-145.50;100.00;65435.88;4883431;29;20048;-47
2021/06/10 10:55:31;;;;;;;14.13;6.85;;;;;;;-145.50;100.00;65435.88;4883242;29;20466;-48
2021/06/10 10:57:58;;;;;;;10.88;7.13;;;;;;;-145.50;100.00;65435.88;4890453;29;20083;-48
2021/06/10 11:00:45;;;;;;;10.00;6.90;;;;;;;-145.50;100.00;65435.88;4887090;29;20140;-48
2021/06/10 11:03:28;;;;;;;10.85;8.45;;;;;;;-145.50;100.00;65435.88;4882481;29;20139;-47
2021/06/10 11:05:57;;;;;;;20.90;7.82;;;;;;;-145.50;100.00;65435.88;4884455;29;20112;-46
2021/06/10 11:09:00;;;;;;;7.25;5.97;;;;;;;-145.50;100.00;65435.88;4885770;29;20551;-48
2021/06/10 11:11:49;;;;;;;11.30;7.38;;;;;;;-145.50;100.00;65435.88;4890636;29;20095;-48